Time;durP1;ratioP1;P1;durP2;ratioP2;P2;SDS_P1;SDS_P2;PMS_P1;PMS_P2;Temp;Humidity;BMP_temperature;BMP_pressure;BME280_temperature;BME280_humidity;BME280_pressure;Samples;Min_cycle;Max_cycle;Signal;HPM_P1;HPM_P2
2023/05/10 00:02:07;;;;;;;6.73;4.10;;;;;11.40;96735.00;;;;5111170;28;20268;-67
2023/05/10 00:04:56;;;;;;;8.53;3.43;;;;;11.50;96733.00;;;;5110221;28;20261;-67
2023/05/10 00:07:45;;;;;;;4.63;3.77;;;;;11.40;96723.00;;;;5096741;28;20320;-67
2023/05/10 00:10:37;;;;;;;5.87;3.57;;;;;11.40;96719.00;;;;5105905;28;20689;-68
2023/05/10 00:13:26;;;;;;;3.53;3.23;;;;;11.40;96724.00;;;;5090859;28;20254;-69
2023/05/10 00:16:15;;;;;;;8.17;3.27;;;;;11.20;96721.00;;;;5100322;28;21028;-68
2023/05/10 00:19:04;;;;;;;5.10;3.53;;;;;11.20;96704.00;;;;5110850;28;20210;-68
2023/05/10 00:21:53;;;;;;;5.00;3.63;;;;;10.50;96713.00;;;;5111179;28;20260;-68
2023/05/10 00:24:42;;;;;;;5.73;3.97;;;;;10.70;96716.00;;;;5100614;28;20267;-68
2023/05/10 00:27:32;;;;;;;4.70;3.87;;;;;10.30;96708.00;;;;5110306;28;20266;-68
2023/05/10 00:30:21;;;;;;;3.37;3.00;;;;;10.60;96705.00;;;;5110118;28;20202;-68
2023/05/10 00:33:11;;;;;;;4.53;3.50;;;;;10.60;96704.00;;;;5110605;28;20191;-68
2023/05/10 00:36:00;;;;;;;3.63;3.33;;;;;10.70;96705.00;;;;5100552;28;20256;-67
2023/05/10 00:38:49;;;;;;;4.67;4.17;;;;;10.50;96699.00;;;;5107110;28;20194;-67
2023/05/10 00:41:38;;;;;;;5.20;4.20;;;;;9.90;96694.00;;;;5110017;28;20228;-67
2023/05/10 00:44:28;;;;;;;4.90;3.37;;;;;9.70;96697.00;;;;5110505;28;20198;-68
2023/05/10 00:47:17;;;;;;;6.67;3.93;;;;;9.80;96686.00;;;;5109686;28;20700;-68
2023/05/10 00:50:08;;;;;;;6.67;4.27;;;;;10.10;96681.00;;;;5110048;28;20211;-68
2023/05/10 00:52:57;;;;;;;4.70;4.27;;;;;10.00;96676.00;;;;5100152;28;20263;-67
2023/05/10 00:55:46;;;;;;;8.13;4.20;;;;;10.10;96673.00;;;;5110596;28;20273;-69
2023/05/10 00:58:35;;;;;;;3.53;3.23;;;;;9.90;96682.00;;;;5109344;28;20583;-68
2023/05/10 01:01:27;;;;;;;4.17;3.60;;;;;10.10;96673.00;;;;5109596;28;20343;-69
2023/05/10 01:04:17;;;;;;;5.60;4.87;;;;;9.70;96683.00;;;;5109858;28;20194;-68
2023/05/10 01:07:06;;;;;;;5.50;4.33;;;;;9.50;96669.00;;;;5105892;28;20275;-69
2023/05/10 01:09:55;;;;;;;5.43;4.23;;;;;9.40;96670.00;;;;5099043;28;20230;-69
2023/05/10 01:12:46;;;;;;;4.70;3.77;;;;;9.40;96667.00;;;;5110574;28;20202;-68
2023/05/10 01:15:35;;;;;;;4.80;4.37;;;;;9.40;96662.00;;;;5088728;28;20222;-69
2023/05/10 01:18:27;;;;;;;5.13;4.60;;;;;9.50;96663.00;;;;5088278;28;20203;-69
2023/05/10 01:21:23;;;;;;;5.30;4.20;;;;;9.70;96665.00;;;;5105811;28;20211;-69
2023/05/10 01:24:33;;;;;;;11.13;4.30;;;;;9.70;96655.00;;;;5102046;28;20323;-69
2023/05/10 01:27:46;;;;;;;5.33;4.73;;;;;9.50;96658.00;;;;5104409;28;20647;-69
2023/05/10 01:31:08;;;;;;;5.47;4.37;;;;;9.70;96663.00;;;;5109004;28;20677;-69
2023/05/10 01:34:02;;;;;;;6.60;4.33;;;;;9.70;96668.00;;;;5109547;28;20206;-69
2023/05/10 01:36:55;;;;;;;6.93;4.70;;;;;9.70;96663.00;;;;5103949;28;20243;-69
2023/05/10 01:39:46;;;;;;;4.33;3.93;;;;;9.50;96663.00;;;;5106301;28;20665;-68
2023/05/10 01:42:41;;;;;;;6.43;3.80;;;;;9.70;96664.00;;;;5107952;28;20214;-68
2023/05/10 01:45:32;;;;;;;5.40;3.83;;;;;9.90;96667.00;;;;5107533;28;20259;-67
2023/05/10 01:48:22;;;;;;;8.30;5.50;;;;;9.70;96654.00;;;;5109318;28;20218;-68
2023/05/10 01:51:13;;;;;;;5.07;4.03;;;;;9.40;96652.00;;;;5109453;28;20231;-68
2023/05/10 01:54:03;;;;;;;5.27;4.37;;;;;9.10;96655.00;;;;5099416;28;20213;-68
2023/05/10 01:56:58;;;;;;;4.00;3.60;;;;;9.00;96660.00;;;;5108637;28;20240;-68
2023/05/10 01:59:50;;;;;;;4.07;3.63;;;;;9.00;96652.00;;;;5109211;28;20206;-68
2023/05/10 02:02:42;;;;;;;6.10;3.87;;;;;9.10;96646.00;;;;5108819;28;20750;-70
2023/05/10 02:05:32;;;;;;;6.17;3.43;;;;;9.20;96642.00;;;;5108821;28;20194;-67
2023/05/10 02:08:23;;;;;;;4.10;3.67;;;;;9.40;96647.00;;;;5107238;28;20206;-66
2023/05/10 02:11:14;;;;;;;6.07;4.27;;;;;9.20;96640.00;;;;5107946;28;20202;-69
2023/05/10 02:14:04;;;;;;;7.70;4.37;;;;;9.20;96647.00;;;;5101116;28;20199;-68
2023/05/10 02:16:53;;;;;;;5.83;4.13;;;;;9.00;96647.00;;;;5095620;28;20219;-67
2023/05/10 02:19:43;;;;;;;5.20;4.43;;;;;9.10;96643.00;;;;5101374;28;20209;-68
2023/05/10 02:22:33;;;;;;;3.60;3.30;;;;;9.30;96640.00;;;;5107766;28;20324;-67
2023/05/10 02:25:25;;;;;;;3.90;3.20;;;;;9.30;96636.00;;;;5107160;28;20681;-67
2023/05/10 02:28:16;;;;;;;3.57;3.27;;;;;9.00;96640.00;;;;5104935;28;20214;-68
2023/05/10 02:31:06;;;;;;;5.13;4.33;;;;;8.80;96643.00;;;;5102405;28;20206;-67
2023/05/10 02:33:55;;;;;;;6.33;4.73;;;;;8.60;96639.00;;;;5108499;28;20729;-67
2023/05/10 02:36:44;;;;;;;6.47;3.73;;;;;8.80;96629.00;;;;5107153;28;20640;-68
2023/05/10 02:39:34;;;;;;;3.77;3.37;;;;;9.00;96630.00;;;;5102151;28;20244;-69
2023/05/10 02:42:27;;;;;;;4.90;4.40;;;;;9.00;96626.00;;;;5108614;28;20235;-69
2023/05/10 02:45:19;;;;;;;4.13;3.50;;;;;8.90;96622.00;;;;5107085;28;20701;-70
2023/05/10 02:48:08;;;;;;;4.20;3.80;;;;;8.70;96625.00;;;;5083644;28;20694;-68
2023/05/10 02:51:00;;;;;;;5.07;4.23;;;;;9.00;96633.00;;;;5097977;28;20578;-69
2023/05/10 02:53:51;;;;;;;6.70;3.47;;;;;8.90;96633.00;;;;5108802;28;20206;-69
2023/05/10 02:56:43;;;;;;;4.67;3.73;;;;;9.00;96630.00;;;;5100045;28;20713;-69
2023/05/10 02:59:34;;;;;;;5.13;3.77;;;;;8.70;96623.00;;;;5106786;28;20284;-69
2023/05/10 03:02:23;;;;;;;4.93;4.20;;;;;8.20;96633.00;;;;5107565;28;20556;-69
2023/05/10 03:05:12;;;;;;;4.30;3.33;;;;;8.20;96634.00;;;;5107671;28;20199;-69
2023/05/10 03:08:04;;;;;;;10.07;4.13;;;;;8.20;96631.00;;;;5103586;28;20226;-69
2023/05/10 03:11:00;;;;;;;7.00;4.00;;;;;8.00;96624.00;;;;5086596;28;20696;-69
2023/05/10 03:13:57;;;;;;;5.77;4.00;;;;;8.10;96626.00;;;;5108210;28;20304;-69
2023/05/10 03:16:52;;;;;;;7.53;4.03;;;;;8.00;96614.00;;;;5107346;28;20279;-69
2023/05/10 03:19:46;;;;;;;6.43;4.10;;;;;8.00;96633.00;;;;5107547;28;20232;-69
2023/05/10 03:22:38;;;;;;;5.27;4.37;;;;;7.80;96625.00;;;;5107242;28;20203;-70
2023/05/10 03:25:28;;;;;;;4.60;4.13;;;;;7.50;96619.00;;;;5106948;28;20641;-70
2023/05/10 03:28:18;;;;;;;5.30;4.10;;;;;7.50;96616.00;;;;5083435;28;20306;-69
2023/05/10 03:31:07;;;;;;;5.00;4.17;;;;;7.50;96626.00;;;;5095369;28;20199;-69
2023/05/10 03:33:58;;;;;;;5.40;4.57;;;;;7.40;96615.00;;;;5102245;28;20219;-67
2023/05/10 03:36:47;;;;;;;6.17;4.50;;;;;7.60;96625.00;;;;5087108;28;20308;-67
2023/05/10 03:39:36;;;;;;;5.87;4.60;;;;;7.70;96614.00;;;;5104129;28;20689;-68
2023/05/10 03:42:25;;;;;;;6.80;4.60;;;;;7.90;96619.00;;;;5107725;28;20202;-67
2023/05/10 03:45:14;;;;;;;5.73;4.07;;;;;8.00;96627.00;;;;5106125;28;20708;-67
2023/05/10 03:48:03;;;;;;;6.30;4.33;;;;;8.00;96624.00;;;;5107550;28;20709;-70
2023/05/10 03:50:53;;;;;;;4.57;4.17;;;;;8.10;96624.00;;;;5107266;28;20194;-68
2023/05/10 03:53:42;;;;;;;4.40;3.90;;;;;8.10;96629.00;;;;5107917;28;20218;-68
2023/05/10 03:56:32;;;;;;;4.67;4.17;;;;;7.50;96614.00;;;;5095703;28;20314;-69
2023/05/10 03:59:21;;;;;;;4.97;3.97;;;;;7.70;96625.00;;;;5093952;28;20211;-69
2023/05/10 04:02:10;;;;;;;4.60;3.23;;;;;6.90;96617.00;;;;5090724;28;20218;-70
2023/05/10 04:04:59;;;;;;;4.57;3.37;;;;;6.60;96621.00;;;;5099816;28;20198;-73
2023/05/10 04:07:50;;;;;;;6.83;4.33;;;;;6.60;96611.00;;;;5106797;28;20241;-73
2023/05/10 04:10:39;;;;;;;13.53;4.80;;;;;7.00;96618.00;;;;5101927;28;20195;-69
2023/05/10 04:13:28;;;;;;;5.27;4.70;;;;;7.10;96626.00;;;;5095196;28;20671;-69
2023/05/10 04:16:17;;;;;;;9.63;5.20;;;;;7.00;96633.00;;;;5080016;28;20630;-68
2023/05/10 04:19:06;;;;;;;5.53;5.03;;;;;6.90;96631.00;;;;5087310;28;20204;-70
2023/05/10 04:21:55;;;;;;;6.17;4.60;;;;;7.10;96635.00;;;;5071748;28;20208;-69
2023/05/10 04:24:46;;;;;;;4.77;4.10;;;;;7.20;96638.00;;;;5086063;28;20217;-69
2023/05/10 04:27:35;;;;;;;10.67;5.00;;;;;7.30;96634.00;;;;5087647;28;20597;-69
2023/05/10 04:30:24;;;;;;;5.37;4.83;;;;;7.50;96641.00;;;;5088226;28;20677;-68
2023/05/10 04:33:14;;;;;;;7.63;4.87;;;;;7.60;96637.00;;;;5080409;28;20246;-69
2023/05/10 04:36:03;;;;;;;6.23;5.60;;;;;7.90;96645.00;;;;5078464;28;20203;-69
2023/05/10 04:38:52;;;;;;;9.27;4.90;;;;;7.90;96650.00;;;;5087440;28;20713;-68
2023/05/10 04:41:43;;;;;;;4.67;3.80;;;;;8.20;96638.00;;;;5088833;28;20207;-68
2023/05/10 04:44:32;;;;;;;5.93;5.33;;;;;8.10;96644.00;;;;5084077;28;20203;-67
2023/05/10 04:47:21;;;;;;;7.63;4.43;;;;;8.40;96641.00;;;;5086760;28;20235;-68
2023/05/10 04:50:10;;;;;;;5.40;4.63;;;;;8.40;96642.00;;;;5093999;28;20207;-67
2023/05/10 04:52:59;;;;;;;10.40;5.23;;;;;8.50;96648.00;;;;5088324;28;20207;-68
2023/05/10 04:55:48;;;;;;;5.70;5.10;;;;;8.70;96642.00;;;;5088640;28;20223;-68
2023/05/10 04:58:39;;;;;;;5.20;4.57;;;;;8.60;96640.00;;;;5093701;28;20699;-68
2023/05/10 05:01:28;;;;;;;5.30;4.47;;;;;8.70;96633.00;;;;5107231;28;20198;-68
2023/05/10 05:04:17;;;;;;;6.27;4.43;;;;;8.70;96634.00;;;;5098806;28;20304;-66
2023/05/10 05:07:06;;;;;;;4.70;4.23;;;;;9.00;96638.00;;;;5083560;28;20234;-68
2023/05/10 05:09:55;;;;;;;5.00;4.47;;;;;8.70;96637.00;;;;5104478;28;20263;-67
2023/05/10 05:12:44;;;;;;;6.20;4.13;;;;;8.60;96643.00;;;;5091452;28;20199;-71
2023/05/10 05:15:34;;;;;;;7.63;4.17;;;;;8.40;96642.00;;;;5089704;28;20693;-68
2023/05/10 05:18:23;;;;;;;5.50;3.50;;;;;8.80;96637.00;;;;5105909;28;20685;-66
2023/05/10 05:21:16;;;;;;;5.90;4.17;;;;;8.90;96632.00;;;;5109149;28;20202;-69
2023/05/10 05:24:06;;;;;;;4.47;4.07;;;;;9.00;96646.00;;;;5095989;28;20251;-67
2023/05/10 05:26:55;;;;;;;4.13;3.73;;;;;9.40;96636.00;;;;5109588;28;20279;-67
2023/05/10 05:29:44;;;;;;;4.67;4.27;;;;;9.70;96639.00;;;;5091926;28;20204;-70
2023/05/10 05:32:35;;;;;;;5.43;4.87;;;;;9.80;96642.00;;;;5082309;28;20206;-71
2023/05/10 05:35:24;;;;;;;4.93;4.50;;;;;10.20;96646.00;;;;5085066;28;20250;-68
2023/05/10 05:38:13;;;;;;;6.77;4.33;;;;;10.30;96645.00;;;;5081647;28;20287;-66
2023/05/10 05:41:02;;;;;;;6.17;4.83;;;;;10.60;96637.00;;;;5094017;28;20199;-68
2023/05/10 05:43:51;;;;;;;5.47;4.27;;;;;10.60;96635.00;;;;5090545;28;20694;-68
2023/05/10 05:46:40;;;;;;;5.07;4.30;;;;;10.60;96639.00;;;;5092421;28;20242;-68
2023/05/10 05:49:31;;;;;;;5.20;4.20;;;;;11.20;96639.00;;;;5108738;28;20210;-68
2023/05/10 05:52:21;;;;;;;5.13;4.13;;;;;11.70;96646.00;;;;5091193;28;20279;-68
2023/05/10 05:55:10;;;;;;;4.13;3.60;;;;;11.80;96642.00;;;;5090932;28;20219;-69
2023/05/10 05:57:59;;;;;;;4.37;3.60;;;;;12.30;96647.00;;;;5088756;28;20315;-68
2023/05/10 06:00:48;;;;;;;4.93;4.00;;;;;12.40;96638.00;;;;5082874;28;20281;-69
2023/05/10 06:03:36;;;;;;;7.07;4.37;;;;;12.60;96653.00;;;;5088223;28;20204;-68
2023/05/10 06:06:27;;;;;;;5.17;3.87;;;;;12.90;96657.00;;;;5092613;28;20223;-68
2023/05/10 06:09:16;;;;;;;3.80;3.23;;;;;12.80;96660.00;;;;5084105;28;20708;-68
2023/05/10 06:12:05;;;;;;;5.50;3.47;;;;;13.00;96669.00;;;;5085700;28;20207;-68
2023/05/10 06:14:54;;;;;;;4.53;3.20;;;;;13.40;96669.00;;;;5094791;28;20371;-68
2023/05/10 06:17:44;;;;;;;4.63;3.40;;;;;13.50;96679.00;;;;5103510;28;20218;-68
2023/05/10 06:20:33;;;;;;;6.83;3.33;;;;;13.30;96666.00;;;;5107272;28;20682;-69
2023/05/10 06:23:25;;;;;;;3.83;3.53;;;;;13.40;96676.00;;;;5086835;28;20210;-69
2023/05/10 06:26:14;;;;;;;4.87;3.97;;;;;14.10;96678.00;;;;5103175;28;20198;-68
2023/05/10 06:29:03;;;;;;;4.60;4.03;;;;;14.50;96679.00;;;;5099362;28;20214;-68
2023/05/10 06:31:52;;;;;;;6.90;3.97;;;;;15.00;96676.00;;;;5107248;28;20240;-68
2023/05/10 06:34:43;;;;;;;10.00;4.40;;;;;14.80;96672.00;;;;5095226;28;20202;-68
2023/05/10 06:37:32;;;;;;;8.43;3.77;;;;;14.90;96662.00;;;;5090942;28;20230;-71
2023/05/10 06:40:22;;;;;;;6.10;4.83;;;;;15.20;96670.00;;;;5090713;28;20199;-67
2023/05/10 06:43:11;;;;;;;4.83;4.17;;;;;15.50;96677.00;;;;5085002;28;20540;-67
2023/05/10 06:46:00;;;;;;;4.73;4.20;;;;;15.30;96675.00;;;;5101025;28;20224;-67
2023/05/10 06:48:49;;;;;;;8.30;4.00;;;;;16.20;96680.00;;;;5080743;28;20204;-68
2023/05/10 06:51:38;;;;;;;6.07;3.90;;;;;16.30;96676.00;;;;5100006;28;20203;-67
2023/05/10 06:54:27;;;;;;;5.50;4.33;;;;;16.60;96671.00;;;;5108251;28;20202;-67
2023/05/10 06:57:18;;;;;;;4.90;4.40;;;;;16.70;96664.00;;;;5107171;28;20265;-67
2023/05/10 07:00:19;;;;;;;4.50;3.53;;;;;16.80;96664.00;;;;5099933;28;20237;-68
2023/05/10 07:03:08;;;;;;;8.67;4.17;;;;;16.70;96664.00;;;;5093152;28;20254;-67
2023/05/10 07:06:03;;;;;;;5.47;4.50;;;;;17.10;96670.00;;;;5090047;28;20195;-67
2023/05/10 07:08:52;;;;;;;8.03;4.17;;;;;16.80;96669.00;;;;5090875;28;20577;-70
2023/05/10 07:11:41;;;;;;;4.60;3.73;;;;;17.20;96672.00;;;;5093540;28;20267;-68
2023/05/10 07:14:31;;;;;;;6.17;4.13;;;;;17.00;96660.00;;;;5090365;28;20235;-69
2023/05/10 07:17:20;;;;;;;5.07;3.40;;;;;17.20;96664.00;;;;5103431;28;20594;-69
2023/05/10 07:20:10;;;;;;;5.13;4.40;;;;;17.60;96664.00;;;;5098263;28;20668;-68
2023/05/10 07:22:59;;;;;;;4.43;3.90;;;;;17.70;96665.00;;;;5081362;28;20203;-68
2023/05/10 07:25:49;;;;;;;4.83;3.73;;;;;17.50;96659.00;;;;5078629;28;20678;-68
2023/05/10 07:28:38;;;;;;;6.30;4.33;;;;;17.80;96668.00;;;;5083545;28;20207;-67
2023/05/10 07:31:29;;;;;;;7.90;3.87;;;;;17.80;96666.00;;;;5084188;28;20207;-68
2023/05/10 07:34:18;;;;;;;3.97;3.57;;;;;18.10;96663.00;;;;5093911;28;20198;-68
2023/05/10 07:37:07;;;;;;;5.37;4.63;;;;;18.10;96665.00;;;;5100280;28;20288;-68
2023/05/10 07:39:56;;;;;;;4.93;4.33;;;;;17.70;96662.00;;;;5102729;28;20199;-67
2023/05/10 07:42:45;;;;;;;8.27;3.83;;;;;18.30;96665.00;;;;5107162;28;20199;-68
2023/05/10 07:45:35;;;;;;;7.27;3.90;;;;;18.50;96669.00;;;;5109726;28;20281;-68
2023/05/10 07:48:25;;;;;;;5.73;3.50;;;;;18.70;96658.00;;;;5110480;28;20206;-68
2023/05/10 07:51:14;;;;;;;8.43;3.57;;;;;18.60;96660.00;;;;5104710;28;20198;-68
2023/05/10 07:54:03;;;;;;;4.37;3.93;;;;;18.90;96661.00;;;;5111119;28;20202;-69
2023/05/10 07:56:52;;;;;;;7.27;3.73;;;;;19.10;96673.00;;;;5110896;28;20226;-68
2023/05/10 07:59:41;;;;;;;7.87;4.53;;;;;15.60;96645.00;;;;5090615;28;20222;-64
2023/05/10 08:02:30;;;;;;;7.67;4.33;;;;;16.20;96658.00;;;;5091689;28;20250;-68
2023/05/10 08:05:21;;;;;;;4.20;3.40;;;;;16.80;96661.00;;;;5092506;28;20211;-65
2023/05/10 08:08:10;;;;;;;6.30;4.53;;;;;17.80;96660.00;;;;5090762;28;20302;-66
2023/05/10 08:10:59;;;;;;;8.70;3.90;;;;;18.10;96659.00;;;;5078073;28;20203;-66
2023/05/10 08:13:49;;;;;;;6.77;4.23;;;;;17.60;96663.00;;;;5078058;28;20829;-66
2023/05/10 08:16:38;;;;;;;4.73;3.60;;;;;18.70;96660.00;;;;5086749;28;20226;-65
2023/05/10 08:19:27;;;;;;;5.90;4.20;;;;;18.70;96673.00;;;;5090801;28;20203;-66
2023/05/10 08:22:17;;;;;;;5.40;4.27;;;;;18.70;96667.00;;;;5091864;28;20247;-67
2023/05/10 08:25:07;;;;;;;5.77;3.53;;;;;18.40;96670.00;;;;5082747;28;20357;-66
2023/05/10 08:27:57;;;;;;;4.33;3.33;;;;;19.30;96667.00;;;;5080851;28;20234;-65
2023/05/10 08:30:46;;;;;;;4.93;2.80;;;;;19.70;96667.00;;;;5089078;28;20684;-66
2023/05/10 08:33:35;;;;;;;4.40;3.63;;;;;19.50;96673.00;;;;5088529;28;20256;-67
2023/05/10 08:36:24;;;;;;;3.70;2.90;;;;;19.90;96676.00;;;;5089029;28;20304;-66
2023/05/10 08:39:14;;;;;;;3.23;2.83;;;;;19.70;96671.00;;;;5089827;28;20199;-66
2023/05/10 08:42:08;;;;;;;3.67;2.93;;;;;19.90;96670.00;;;;5090958;28;20712;-66
2023/05/10 08:44:58;;;;;;;3.00;2.70;;;;;20.00;96673.00;;;;5089386;28;20214;-66
2023/05/10 08:47:47;;;;;;;5.27;3.20;;;;;20.00;96668.00;;;;5076521;28;20223;-66
2023/05/10 08:50:38;;;;;;;5.77;2.90;;;;;20.00;96665.00;;;;5088594;28;20231;-66
2023/05/10 08:53:28;;;;;;;4.30;3.23;;;;;20.10;96668.00;;;;5089277;28;20207;-66
2023/05/10 08:56:20;;;;;;;6.90;4.43;;;;;20.40;96663.00;;;;5089258;28;20702;-66
2023/05/10 08:59:09;;;;;;;4.43;2.93;;;;;20.60;96666.00;;;;5090063;28;20215;-67
2023/05/10 09:01:59;;;;;;;3.90;3.07;;;;;21.00;96668.00;;;;5090707;28;20214;-68
2023/05/10 09:04:48;;;;;;;5.47;3.47;;;;;21.10;96657.00;;;;5090643;28;20218;-66
2023/05/10 09:07:38;;;;;;;3.80;3.40;;;;;21.30;96676.00;;;;5088784;28;20601;-66
2023/05/10 09:10:28;;;;;;;7.87;3.17;;;;;21.50;96666.00;;;;5090109;28;20211;-66
2023/05/10 09:13:19;;;;;;;3.67;3.10;;;;;21.90;96667.00;;;;5085470;28;20223;-66
2023/05/10 09:16:08;;;;;;;5.30;3.65;;;;;21.70;96667.00;;;;5085541;28;20298;-66
2023/05/10 09:19:01;;;;;;;7.00;3.80;;;;;21.40;96672.00;;;;5088871;28;20206;-67
2023/05/10 09:21:50;;;;;;;3.80;3.40;;;;;21.50;96670.00;;;;5090331;28;20196;-67
2023/05/10 09:24:44;;;;;;;4.73;3.40;;;;;21.60;96667.00;;;;5089290;28;20235;-66
2023/05/10 09:27:33;;;;;;;4.40;3.37;;;;;21.70;96678.00;;;;5088623;28;20242;-66
2023/05/10 09:30:27;;;;;;;4.70;4.07;;;;;21.00;96669.00;;;;5088428;28;20241;-66
2023/05/10 09:33:20;;;;;;;4.63;3.30;;;;;21.00;96677.00;;;;5089996;28;20683;-66
2023/05/10 09:36:09;;;;;;;4.00;3.60;;;;;21.00;96661.00;;;;5088721;28;20207;-67
2023/05/10 09:38:59;;;;;;;4.23;3.53;;;;;21.50;96677.00;;;;5089995;28;20679;-66
2023/05/10 09:41:48;;;;;;;5.00;3.27;;;;;20.70;96674.00;;;;5076426;28;20200;-67
2023/05/10 09:44:38;;;;;;;3.70;2.90;;;;;20.90;96673.00;;;;5090169;28;20284;-67
2023/05/10 09:47:28;;;;;;;4.17;3.00;;;;;21.00;96670.00;;;;5088625;28;20312;-67
2023/05/10 09:50:17;;;;;;;3.73;2.90;;;;;20.70;96665.00;;;;5089512;28;20214;-67
2023/05/10 09:53:06;;;;;;;3.90;2.97;;;;;20.60;96656.00;;;;5086569;28;20199;-68
2023/05/10 09:55:56;;;;;;;5.37;3.70;;;;;20.70;96648.00;;;;5088424;28;20203;-70
2023/05/10 09:58:45;;;;;;;5.50;3.23;;;;;19.00;96661.00;;;;5071389;28;20203;-67
2023/05/10 10:01:35;;;;;;;3.40;2.63;;;;;19.80;96663.00;;;;5081312;28;20730;-66
2023/05/10 10:04:25;;;;;;;4.43;2.90;;;;;20.70;96663.00;;;;5089259;28;20207;-66
2023/05/10 10:07:14;;;;;;;4.57;2.87;;;;;21.30;96671.00;;;;5088301;28;20752;-67
2023/05/10 10:10:04;;;;;;;3.63;2.23;;;;;21.40;96651.00;;;;5073876;28;20255;-67
2023/05/10 10:12:53;;;;;;;4.50;1.90;;;;;21.70;96659.00;;;;5063228;28;20251;-67
2023/05/10 10:15:43;;;;;;;2.10;1.80;;;;;21.70;96653.00;;;;5074716;28;20208;-66
2023/05/10 10:18:33;;;;;;;2.80;2.23;;;;;22.00;96650.00;;;;5072996;28;20219;-66
2023/05/10 10:21:23;;;;;;;3.53;1.70;;;;;22.80;96653.00;;;;5077122;28;20261;-67
2023/05/10 10:24:12;;;;;;;3.30;2.43;;;;;22.50;96647.00;;;;5078980;28;20245;-67
2023/05/10 10:27:10;;;;;;;2.23;2.03;;;;;23.10;96644.00;;;;5062853;28;20322;-67
2023/05/10 10:30:04;;;;;;;2.80;2.33;;;;;23.00;96638.00;;;;5081651;28;20229;-67
2023/05/10 10:33:19;;;;;;;3.57;2.30;;;;;23.90;96626.00;;;;5080193;28;20199;-67
2023/05/10 10:36:16;;;;;;;4.37;2.93;;;;;24.00;96645.00;;;;5075073;28;20759;-68
2023/05/10 10:39:10;;;;;;;4.27;2.33;;;;;23.60;96644.00;;;;5079338;28;20262;-68
2023/05/10 10:42:02;;;;;;;4.20;2.47;;;;;24.20;96644.00;;;;5073766;28;20200;-67
2023/05/10 10:44:51;;;;;;;2.77;2.27;;;;;24.10;96643.00;;;;5066548;28;20200;-67
2023/05/10 10:47:40;;;;;;;3.23;2.13;;;;;23.70;96636.00;;;;5065993;28;20216;-67
2023/05/10 10:50:29;;;;;;;2.37;2.17;;;;;22.40;96633.00;;;;5076067;28;20226;-66
2023/05/10 10:53:18;;;;;;;2.87;2.10;;;;;22.10;96616.00;;;;5085418;28;20211;-69
2023/05/10 10:56:10;;;;;;;3.43;2.20;;;;;23.30;96628.00;;;;5088193;28;20203;-68
2023/05/10 10:59:01;;;;;;;3.23;2.47;;;;;23.80;96624.00;;;;5078417;28;20214;-68
2023/05/10 11:01:53;;;;;;;3.07;2.03;;;;;20.70;96618.00;;;;5094597;28;20272;-67
2023/05/10 11:04:46;;;;;;;2.50;2.20;;;;;20.60;96607.00;;;;5108014;28;20280;-68
2023/05/10 11:07:35;;;;;;;7.83;3.47;;;;;23.00;96612.00;;;;5103265;28;20303;-67
2023/05/10 11:10:25;;;;;;;3.67;3.37;;;;;21.20;96604.00;;;;5099921;28;20195;-68
2023/05/10 11:13:15;;;;;;;7.10;4.33;;;;;22.50;96591.00;;;;5098245;28;20199;-66
2023/05/10 11:16:18;;;;;;;4.53;3.23;;;;;23.40;96610.00;;;;5099142;28;20287;-68
2023/05/10 11:19:10;;;;;;;6.47;3.53;;;;;24.00;96611.00;;;;5098733;28;20232;-67
2023/05/10 11:22:14;;;;;;;5.67;2.67;;;;;24.60;96609.00;;;;5099319;28;20190;-67
2023/05/10 11:25:03;;;;;;;3.80;2.50;;;;;24.80;96592.00;;;;5100258;28;20673;-67
2023/05/10 11:27:52;;;;;;;5.20;2.40;;;;;25.50;96593.00;;;;5084514;28;20251;-67
2023/05/10 11:30:45;;;;;;;3.20;2.90;;;;;25.70;96603.00;;;;5088363;28;20262;-67
2023/05/10 11:33:44;;;;;;;2.40;2.20;;;;;26.10;96615.00;;;;5088811;28;20036;-67
2023/05/10 11:36:35;;;;;;;3.47;3.13;;;;;25.90;96606.00;;;;5088692;28;20237;-67
2023/05/10 11:39:28;;;;;;;3.13;2.83;;;;;25.20;96605.00;;;;5092099;28;20203;-67
2023/05/10 11:42:17;;;;;;;3.83;2.67;;;;;24.90;96612.00;;;;5093563;28;20203;-66
2023/05/10 11:45:07;;;;;;;4.23;2.70;;;;;25.30;96624.00;;;;5101447;28;20245;-66
2023/05/10 11:47:58;;;;;;;4.03;3.10;;;;;24.90;96615.00;;;;5102322;28;20661;-67
2023/05/10 11:50:47;;;;;;;4.27;2.73;;;;;25.00;96608.00;;;;5077755;28;20205;-67
2023/05/10 11:53:37;;;;;;;5.00;3.00;;;;;24.60;96613.00;;;;5089307;28;20203;-66
2023/05/10 11:56:27;;;;;;;3.57;2.73;;;;;20.70;96599.00;;;;5078177;28;20220;-72
2023/05/10 11:59:16;;;;;;;5.17;3.50;;;;;21.30;96598.00;;;;5083405;28;20611;-68
2023/05/10 12:02:05;;;;;;;2.63;2.43;;;;;21.70;96593.00;;;;5088538;28;20209;-70
2023/05/10 12:04:57;;;;;;;4.27;2.43;;;;;21.30;96603.00;;;;5084319;28;20252;-67
2023/05/10 12:07:46;;;;;;;4.03;3.30;;;;;20.30;96606.00;;;;5084047;28;20223;-66
2023/05/10 12:10:36;;;;;;;4.30;3.43;;;;;19.10;96605.00;;;;5086023;28;20207;-72
2023/05/10 12:13:25;;;;;;;8.27;2.70;;;;;19.30;96609.00;;;;5088540;28;20244;-64
2023/05/10 12:16:15;;;;;;;5.30;3.30;;;;;18.90;96620.00;;;;5089777;28;20217;-63
2023/05/10 12:19:05;;;;;;;3.80;3.07;;;;;19.50;96623.00;;;;5090818;28;20194;-67
2023/05/10 12:21:55;;;;;;;3.47;2.83;;;;;20.00;96624.00;;;;5079142;28;20580;-67
2023/05/10 12:24:47;;;;;;;3.63;2.60;;;;;20.20;96626.00;;;;5086494;28;20200;-67
2023/05/10 12:27:36;;;;;;;10.23;4.90;;;;;20.10;96637.00;;;;5087051;28;20223;-66
2023/05/10 12:30:26;;;;;;;4.90;4.43;;;;;20.20;96640.00;;;;5088017;28;20238;-66
2023/05/10 12:33:16;;;;;;;5.80;4.33;;;;;19.90;96652.00;;;;5092710;28;20206;-68
2023/05/10 12:36:06;;;;;;;4.23;3.87;;;;;19.90;96637.00;;;;5084469;28;20203;-68
2023/05/10 12:39:04;;;;;;;6.97;4.77;;;;;20.00;96644.00;;;;5087656;28;20289;-67
2023/05/10 12:41:53;;;;;;;4.53;3.73;;;;;20.00;96639.00;;;;5095789;28;20701;-67
2023/05/10 12:44:42;;;;;;;4.97;4.27;;;;;19.70;96636.00;;;;5090021;28;20206;-67
2023/05/10 12:47:31;;;;;;;7.83;4.13;;;;;19.70;96644.00;;;;5084915;28;20686;-67
2023/05/10 12:50:20;;;;;;;8.50;5.07;;;;;19.40;96634.00;;;;5090964;28;20210;-67
2023/05/10 12:53:09;;;;;;;6.20;4.87;;;;;19.20;96644.00;;;;5100564;28;20199;-66
2023/05/10 12:56:00;;;;;;;9.90;5.60;;;;;19.10;96641.00;;;;5084280;28;20256;-67
2023/05/10 12:58:49;;;;;;;5.37;4.53;;;;;19.20;96645.00;;;;5083051;28;20675;-67
2023/05/10 13:01:38;;;;;;;9.50;5.47;;;;;19.20;96636.00;;;;5096128;28;20202;-66
2023/05/10 13:04:27;;;;;;;4.67;4.27;;;;;19.40;96632.00;;;;5089031;28;20195;-66
2023/05/10 13:07:16;;;;;;;6.80;5.10;;;;;19.60;96628.00;;;;5104290;28;20223;-67
2023/05/10 13:10:06;;;;;;;6.97;4.47;;;;;19.60;96632.00;;;;5090496;28;20207;-66
2023/05/10 13:12:56;;;;;;;7.13;4.93;;;;;19.70;96629.00;;;;5101283;28;20203;-66
2023/05/10 13:15:45;;;;;;;5.30;4.40;;;;;19.80;96629.00;;;;5108023;28;20199;-66
2023/05/10 13:18:34;;;;;;;10.63;4.50;;;;;19.40;96630.00;;;;5096452;28;20200;-67
2023/05/10 13:21:24;;;;;;;6.53;5.43;;;;;18.70;96624.00;;;;5106882;28;20253;-67
2023/05/10 13:24:14;;;;;;;7.93;5.40;;;;;18.60;96621.00;;;;5093762;28;20207;-66
2023/05/10 13:27:03;;;;;;;5.60;4.37;;;;;18.90;96622.00;;;;5090218;28;20435;-66
2023/05/10 13:29:54;;;;;;;5.23;4.50;;;;;18.80;96618.00;;;;5105323;28;20720;-66
2023/05/10 13:32:43;;;;;;;6.20;5.03;;;;;19.10;96623.00;;;;5095159;28;20248;-66
2023/05/10 13:35:32;;;;;;;4.87;4.23;;;;;19.30;96615.00;;;;5103763;28;21540;-66
2023/05/10 13:38:21;;;;;;;4.93;4.53;;;;;19.20;96610.00;;;;5102712;28;20868;-66
2023/05/10 13:41:10;;;;;;;7.20;4.67;;;;;19.20;96617.00;;;;5099019;28;20203;-66
2023/05/10 13:43:59;;;;;;;5.60;4.50;;;;;19.30;96611.00;;;;5099313;28;20202;-66
2023/05/10 13:46:50;;;;;;;5.57;4.50;;;;;18.50;96606.00;;;;5100139;28;20652;-67
2023/05/10 13:49:39;;;;;;;5.97;5.37;;;;;18.90;96610.00;;;;5103302;28;20238;-66
2023/05/10 13:52:28;;;;;;;7.63;5.00;;;;;18.80;96601.00;;;;5094520;28;20826;-66
2023/05/10 13:55:17;;;;;;;5.80;4.87;;;;;18.90;96609.00;;;;5107073;28;20249;-67
2023/05/10 13:58:06;;;;;;;7.57;4.90;;;;;18.50;96602.00;;;;5090339;28;20233;-67
2023/05/10 14:00:55;;;;;;;4.57;4.17;;;;;18.40;96594.00;;;;5095111;28;20615;-66
2023/05/10 14:03:45;;;;;;;6.40;4.53;;;;;18.40;96602.00;;;;5106795;28;20578;-66
2023/05/10 14:06:34;;;;;;;7.40;4.93;;;;;18.40;96602.00;;;;5103990;28;20225;-66
2023/05/10 14:09:23;;;;;;;5.80;4.20;;;;;18.70;96604.00;;;;5103005;28;20279;-66
2023/05/10 14:12:14;;;;;;;4.53;4.13;;;;;18.30;96606.00;;;;5096308;28;20199;-68
2023/05/10 14:15:05;;;;;;;5.20;4.70;;;;;18.80;96606.00;;;;5094353;28;20236;-68
2023/05/10 14:17:54;;;;;;;4.70;3.80;;;;;18.50;96602.00;;;;5079819;28;20211;-68